sensor_id;sensor_type;location;lat;lon;timestamp;temperature;humidity
5899;DHT22;2975;50.956;6.962;2022-08-19T00:00:37;19.50;99.90
5899;DHT22;2975;50.956;6.962;2022-08-19T00:03:04;19.50;99.90
5899;DHT22;2975;50.956;6.962;2022-08-19T00:05:29;19.40;99.90
5899;DHT22;2975;50.956;6.962;2022-08-19T00:07:55;19.40;99.90
5899;DHT22;2975;50.956;6.962;2022-08-19T00:10:21;19.40;99.90
5899;DHT22;2975;50.956;6.962;2022-08-19T00:12:47;19.40;99.90
5899;DHT22;2975;50.956;6.962;2022-08-19T00:15:15;19.30;99.90
5899;DHT22;2975;50.956;6.962;2022-08-19T00:17:43;19.30;99.90
5899;DHT22;2975;50.956;6.962;2022-08-19T00:20:11;19.30;99.90
5899;DHT22;2975;50.956;6.962;2022-08-19T00:22:38;19.30;99.90
5899;DHT22;2975;50.956;6.962;2022-08-19T00:25:05;19.30;99.90
5899;DHT22;2975;50.956;6.962;2022-08-19T00:27:30;19.20;99.90
5899;DHT22;2975;50.956;6.962;2022-08-19T00:29:56;19.20;99.90
5899;DHT22;2975;50.956;6.962;2022-08-19T00:32:22;19.20;99.90
5899;DHT22;2975;50.956;6.962;2022-08-19T00:34:48;19.20;99.90
5899;DHT22;2975;50.956;6.962;2022-08-19T00:37:13;19.20;99.90
5899;DHT22;2975;50.956;6.962;2022-08-19T00:39:39;19.20;99.90
5899;DHT22;2975;50.956;6.962;2022-08-19T00:42:04;19.10;99.90
5899;DHT22;2975;50.956;6.962;2022-08-19T00:44:31;19.10;99.90
5899;DHT22;2975;50.956;6.962;2022-08-19T00:46:58;19.10;99.90
5899;DHT22;2975;50.956;6.962;2022-08-19T00:49:41;19.10;99.90
5899;DHT22;2975;50.956;6.962;2022-08-19T00:52:12;19.10;99.90
5899;DHT22;2975;50.956;6.962;2022-08-19T00:54:39;19.10;99.90
5899;DHT22;2975;50.956;6.962;2022-08-19T00:57:10;19.10;99.90
5899;DHT22;2975;50.956;6.962;2022-08-19T00:59:39;19.10;99.90
5899;DHT22;2975;50.956;6.962;2022-08-19T01:02:06;19.00;99.90
5899;DHT22;2975;50.956;6.962;2022-08-19T01:04:31;19.00;99.90
5899;DHT22;2975;50.956;6.962;2022-08-19T01:06:57;19.00;99.90
5899;DHT22;2975;50.956;6.962;2022-08-19T01:09:23;19.00;99.90
5899;DHT22;2975;50.956;6.962;2022-08-19T01:11:50;18.90;99.90
5899;DHT22;2975;50.956;6.962;2022-08-19T01:14:16;18.90;99.90
5899;DHT22;2975;50.956;6.962;2022-08-19T01:16:42;18.90;99.90
5899;DHT22;2975;50.956;6.962;2022-08-19T01:21:52;18.90;99.90
5899;DHT22;2975;50.956;6.962;2022-08-19T01:24:20;18.80;99.90
5899;DHT22;2975;50.956;6.962;2022-08-19T01:26:47;18.80;99.90
5899;DHT22;2975;50.956;6.962;2022-08-19T01:29:13;18.80;99.90
5899;DHT22;2975;50.956;6.962;2022-08-19T01:31:39;18.80;99.90
5899;DHT22;2975;50.956;6.962;2022-08-19T01:34:05;18.70;99.90
5899;DHT22;2975;50.956;6.962;2022-08-19T01:36:40;18.70;99.90
5899;DHT22;2975;50.956;6.962;2022-08-19T01:39:10;18.70;99.90
5899;DHT22;2975;50.956;6.962;2022-08-19T01:41:36;18.60;99.90
5899;DHT22;2975;50.956;6.962;2022-08-19T01:44:02;18.60;99.90
5899;DHT22;2975;50.956;6.962;2022-08-19T01:46:30;18.60;99.90
5899;DHT22;2975;50.956;6.962;2022-08-19T01:48:55;18.60;99.90
5899;DHT22;2975;50.956;6.962;2022-08-19T01:51:21;18.60;99.90
5899;DHT22;2975;50.956;6.962;2022-08-19T01:53:48;18.50;99.90
5899;DHT22;2975;50.956;6.962;2022-08-19T01:56:15;18.50;99.90
5899;DHT22;2975;50.956;6.962;2022-08-19T01:58:51;18.50;99.90
5899;DHT22;2975;50.956;6.962;2022-08-19T02:01:17;18.50;99.90
5899;DHT22;2975;50.956;6.962;2022-08-19T02:03:43;18.50;99.90
5899;DHT22;2975;50.956;6.962;2022-08-19T02:06:09;18.50;99.90
5899;DHT22;2975;50.956;6.962;2022-08-19T02:08:37;18.50;99.90
5899;DHT22;2975;50.956;6.962;2022-08-19T02:11:04;18.50;99.90
5899;DHT22;2975;50.956;6.962;2022-08-19T02:13:30;18.50;99.90
5899;DHT22;2975;50.956;6.962;2022-08-19T02:15:55;18.50;99.90
5899;DHT22;2975;50.956;6.962;2022-08-19T02:18:21;18.50;99.90
5899;DHT22;2975;50.956;6.962;2022-08-19T02:20:47;18.50;99.90
5899;DHT22;2975;50.956;6.962;2022-08-19T02:23:14;18.50;99.90
5899;DHT22;2975;50.956;6.962;2022-08-19T02:25:41;18.50;99.90
5899;DHT22;2975;50.956;6.962;2022-08-19T02:28:07;18.50;99.90
5899;DHT22;2975;50.956;6.962;2022-08-19T02:30:33;18.50;99.90
5899;DHT22;2975;50.956;6.962;2022-08-19T02:32:58;18.40;99.90
5899;DHT22;2975;50.956;6.962;2022-08-19T02:35:24;18.40;99.90
5899;DHT22;2975;50.956;6.962;2022-08-19T02:37:50;18.40;99.90
5899;DHT22;2975;50.956;6.962;2022-08-19T02:40:35;18.40;99.90
5899;DHT22;2975;50.956;6.962;2022-08-19T02:43:05;18.30;99.90
5899;DHT22;2975;50.956;6.962;2022-08-19T02:45:38;18.30;99.90
5899;DHT22;2975;50.956;6.962;2022-08-19T02:48:04;18.30;99.90
5899;DHT22;2975;50.956;6.962;2022-08-19T02:50:31;18.30;99.90
5899;DHT22;2975;50.956;6.962;2022-08-19T02:52:57;18.30;99.90
5899;DHT22;2975;50.956;6.962;2022-08-19T02:55:22;18.30;99.90
5899;DHT22;2975;50.956;6.962;2022-08-19T02:57:48;18.30;99.90
5899;DHT22;2975;50.956;6.962;2022-08-19T03:00:15;18.30;99.90
5899;DHT22;2975;50.956;6.962;2022-08-19T03:02:42;18.30;99.90
5899;DHT22;2975;50.956;6.962;2022-08-19T03:05:09;18.30;99.90
5899;DHT22;2975;50.956;6.962;2022-08-19T03:07:36;18.30;99.90
5899;DHT22;2975;50.956;6.962;2022-08-19T03:10:02;18.20;99.90
5899;DHT22;2975;50.956;6.962;2022-08-19T03:12:28;18.20;99.90
5899;DHT22;2975;50.956;6.962;2022-08-19T03:14:54;18.20;99.90
5899;DHT22;2975;50.956;6.962;2022-08-19T03:17:19;18.20;99.90
5899;DHT22;2975;50.956;6.962;2022-08-19T03:19:45;18.20;99.90
5899;DHT22;2975;50.956;6.962;2022-08-19T03:22:11;18.20;99.90
5899;DHT22;2975;50.956;6.962;2022-08-19T03:24:39;18.20;99.90
5899;DHT22;2975;50.956;6.962;2022-08-19T03:27:04;18.20;99.90
5899;DHT22;2975;50.956;6.962;2022-08-19T03:29:31;18.20;99.90
5899;DHT22;2975;50.956;6.962;2022-08-19T03:32:02;18.20;99.90
5899;DHT22;2975;50.956;6.962;2022-08-19T03:34:30;18.20;99.90
5899;DHT22;2975;50.956;6.962;2022-08-19T03:36:58;18.20;99.90
5899;DHT22;2975;50.956;6.962;2022-08-19T03:39:25;18.10;99.90
5899;DHT22;2975;50.956;6.962;2022-08-19T03:41:53;18.20;99.90
5899;DHT22;2975;50.956;6.962;2022-08-19T03:44:21;18.20;99.90
5899;DHT22;2975;50.956;6.962;2022-08-19T03:46:49;18.20;99.90
5899;DHT22;2975;50.956;6.962;2022-08-19T03:49:16;18.20;99.90
5899;DHT22;2975;50.956;6.962;2022-08-19T03:51:43;18.30;99.90
5899;DHT22;2975;50.956;6.962;2022-08-19T03:54:12;18.40;99.90
5899;DHT22;2975;50.956;6.962;2022-08-19T03:56:39;18.50;99.90
5899;DHT22;2975;50.956;6.962;2022-08-19T03:59:09;18.50;99.90
5899;DHT22;2975;50.956;6.962;2022-08-19T04:01:36;18.50;99.90
5899;DHT22;2975;50.956;6.962;2022-08-19T04:04:03;18.50;99.90
5899;DHT22;2975;50.956;6.962;2022-08-19T04:06:31;18.50;99.90
5899;DHT22;2975;50.956;6.962;2022-08-19T04:08:59;18.50;99.90
5899;DHT22;2975;50.956;6.962;2022-08-19T04:11:28;18.50;99.90
5899;DHT22;2975;50.956;6.962;2022-08-19T04:13:55;18.50;99.90
5899;DHT22;2975;50.956;6.962;2022-08-19T04:16:24;18.50;99.90
5899;DHT22;2975;50.956;6.962;2022-08-19T04:18:49;18.40;99.90
5899;DHT22;2975;50.956;6.962;2022-08-19T04:21:18;18.50;99.90
5899;DHT22;2975;50.956;6.962;2022-08-19T04:23:44;18.50;99.90
5899;DHT22;2975;50.956;6.962;2022-08-19T04:26:18;18.50;99.90
5899;DHT22;2975;50.956;6.962;2022-08-19T04:28:45;18.50;99.90
5899;DHT22;2975;50.956;6.962;2022-08-19T04:31:16;18.50;99.90
5899;DHT22;2975;50.956;6.962;2022-08-19T04:33:42;18.50;99.90
5899;DHT22;2975;50.956;6.962;2022-08-19T04:36:15;18.40;99.90
5899;DHT22;2975;50.956;6.962;2022-08-19T04:38:41;18.50;99.90
5899;DHT22;2975;50.956;6.962;2022-08-19T04:41:07;18.70;99.90
5899;DHT22;2975;50.956;6.962;2022-08-19T04:43:53;18.60;99.90
5899;DHT22;2975;50.956;6.962;2022-08-19T04:46:18;18.70;99.90
5899;DHT22;2975;50.956;6.962;2022-08-19T04:48:44;18.70;99.90
5899;DHT22;2975;50.956;6.962;2022-08-19T04:51:11;18.70;99.90
5899;DHT22;2975;50.956;6.962;2022-08-19T04:53:40;18.70;99.90
5899;DHT22;2975;50.956;6.962;2022-08-19T04:56:11;18.80;99.90
5899;DHT22;2975;50.956;6.962;2022-08-19T04:58:39;18.80;99.90
5899;DHT22;2975;50.956;6.962;2022-08-19T05:01:07;18.80;99.90
5899;DHT22;2975;50.956;6.962;2022-08-19T05:03:35;18.90;99.90
5899;DHT22;2975;50.956;6.962;2022-08-19T05:06:10;19.00;99.90
5899;DHT22;2975;50.956;6.962;2022-08-19T05:08:38;19.20;99.90
5899;DHT22;2975;50.956;6.962;2022-08-19T05:11:21;19.20;99.90
5899;DHT22;2975;50.956;6.962;2022-08-19T05:13:48;19.30;99.90
5899;DHT22;2975;50.956;6.962;2022-08-19T05:16:16;19.30;99.90
5899;DHT22;2975;50.956;6.962;2022-08-19T05:18:43;19.40;99.90
5899;DHT22;2975;50.956;6.962;2022-08-19T05:21:28;19.40;99.90
5899;DHT22;2975;50.956;6.962;2022-08-19T05:24:13;19.40;99.90
5899;DHT22;2975;50.956;6.962;2022-08-19T05:26:41;19.50;99.90
5899;DHT22;2975;50.956;6.962;2022-08-19T05:29:08;19.60;99.90
5899;DHT22;2975;50.956;6.962;2022-08-19T05:31:34;19.70;99.90
5899;DHT22;2975;50.956;6.962;2022-08-19T05:34:01;19.80;99.90
5899;DHT22;2975;50.956;6.962;2022-08-19T05:36:32;19.80;99.90
5899;DHT22;2975;50.956;6.962;2022-08-19T05:38:59;19.90;99.90
5899;DHT22;2975;50.956;6.962;2022-08-19T05:41:25;19.90;99.90
5899;DHT22;2975;50.956;6.962;2022-08-19T05:43:55;19.90;99.90
5899;DHT22;2975;50.956;6.962;2022-08-19T05:46:21;19.80;99.90
5899;DHT22;2975;50.956;6.962;2022-08-19T05:48:48;19.80;99.90
5899;DHT22;2975;50.956;6.962;2022-08-19T05:51:14;19.70;99.90
5899;DHT22;2975;50.956;6.962;2022-08-19T05:53:41;19.70;99.90
5899;DHT22;2975;50.956;6.962;2022-08-19T05:56:11;19.80;99.90
5899;DHT22;2975;50.956;6.962;2022-08-19T05:58:37;19.80;99.90
5899;DHT22;2975;50.956;6.962;2022-08-19T06:01:16;19.90;99.90
5899;DHT22;2975;50.956;6.962;2022-08-19T06:03:42;20.00;99.90
5899;DHT22;2975;50.956;6.962;2022-08-19T06:06:10;20.10;99.90
5899;DHT22;2975;50.956;6.962;2022-08-19T06:08:37;20.50;99.90
5899;DHT22;2975;50.956;6.962;2022-08-19T06:11:18;21.00;99.90
5899;DHT22;2975;50.956;6.962;2022-08-19T06:13:46;21.60;99.90
5899;DHT22;2975;50.956;6.962;2022-08-19T06:16:16;22.20;99.90
5899;DHT22;2975;50.956;6.962;2022-08-19T06:18:56;22.40;99.90
5899;DHT22;2975;50.956;6.962;2022-08-19T06:21:24;22.50;99.90
5899;DHT22;2975;50.956;6.962;2022-08-19T06:23:51;22.30;99.90
5899;DHT22;2975;50.956;6.962;2022-08-19T06:26:18;21.90;99.90
5899;DHT22;2975;50.956;6.962;2022-08-19T06:28:45;21.60;99.90
5899;DHT22;2975;50.956;6.962;2022-08-19T06:31:16;21.40;99.90
5899;DHT22;2975;50.956;6.962;2022-08-19T06:33:44;21.20;99.90
5899;DHT22;2975;50.956;6.962;2022-08-19T06:36:21;21.10;99.90
5899;DHT22;2975;50.956;6.962;2022-08-19T06:38:47;21.00;99.90
5899;DHT22;2975;50.956;6.962;2022-08-19T06:41:13;21.10;99.90
5899;DHT22;2975;50.956;6.962;2022-08-19T06:43:39;21.20;99.90
5899;DHT22;2975;50.956;6.962;2022-08-19T06:46:10;21.20;99.90
5899;DHT22;2975;50.956;6.962;2022-08-19T06:48:37;21.20;99.90
5899;DHT22;2975;50.956;6.962;2022-08-19T06:51:03;21.30;99.90
5899;DHT22;2975;50.956;6.962;2022-08-19T06:53:31;21.50;99.90
5899;DHT22;2975;50.956;6.962;2022-08-19T06:55:56;21.80;99.90
5899;DHT22;2975;50.956;6.962;2022-08-19T06:58:26;22.00;99.90
5899;DHT22;2975;50.956;6.962;2022-08-19T07:00:51;22.10;99.90
5899;DHT22;2975;50.956;6.962;2022-08-19T07:03:17;22.30;99.90
5899;DHT22;2975;50.956;6.962;2022-08-19T07:05:43;22.20;99.90
5899;DHT22;2975;50.956;6.962;2022-08-19T07:08:08;22.10;99.90
5899;DHT22;2975;50.956;6.962;2022-08-19T07:10:34;22.30;99.90
5899;DHT22;2975;50.956;6.962;2022-08-19T07:13:02;22.60;99.90
5899;DHT22;2975;50.956;6.962;2022-08-19T07:15:29;23.00;99.90
5899;DHT22;2975;50.956;6.962;2022-08-19T07:17:54;23.10;99.90
5899;DHT22;2975;50.956;6.962;2022-08-19T07:20:20;23.20;99.90
5899;DHT22;2975;50.956;6.962;2022-08-19T07:22:46;23.30;99.90
5899;DHT22;2975;50.956;6.962;2022-08-19T07:25:11;23.00;99.90
5899;DHT22;2975;50.956;6.962;2022-08-19T07:27:39;22.70;99.90
5899;DHT22;2975;50.956;6.962;2022-08-19T07:30:05;22.70;99.90
5899;DHT22;2975;50.956;6.962;2022-08-19T07:32:31;22.60;99.90
5899;DHT22;2975;50.956;6.962;2022-08-19T07:34:56;22.40;99.90
5899;DHT22;2975;50.956;6.962;2022-08-19T07:37:23;22.30;99.90
5899;DHT22;2975;50.956;6.962;2022-08-19T07:39:51;22.40;99.90
5899;DHT22;2975;50.956;6.962;2022-08-19T07:42:17;22.50;99.90
5899;DHT22;2975;50.956;6.962;2022-08-19T07:44:43;22.40;99.90
5899;DHT22;2975;50.956;6.962;2022-08-19T07:47:08;22.40;99.90
5899;DHT22;2975;50.956;6.962;2022-08-19T07:49:34;22.70;99.90
5899;DHT22;2975;50.956;6.962;2022-08-19T07:52:04;22.80;99.90
5899;DHT22;2975;50.956;6.962;2022-08-19T07:54:33;22.60;99.90
5899;DHT22;2975;50.956;6.962;2022-08-19T07:57:00;22.30;99.90
5899;DHT22;2975;50.956;6.962;2022-08-19T07:59:25;22.40;99.90
5899;DHT22;2975;50.956;6.962;2022-08-19T08:01:52;22.50;99.90
5899;DHT22;2975;50.956;6.962;2022-08-19T08:04:18;22.40;99.90
5899;DHT22;2975;50.956;6.962;2022-08-19T08:07:03;22.20;99.90
5899;DHT22;2975;50.956;6.962;2022-08-19T08:09:47;22.20;99.90
5899;DHT22;2975;50.956;6.962;2022-08-19T08:12:21;22.30;99.90
5899;DHT22;2975;50.956;6.962;2022-08-19T08:14:52;22.30;99.90
5899;DHT22;2975;50.956;6.962;2022-08-19T08:17:21;22.30;99.90
5899;DHT22;2975;50.956;6.962;2022-08-19T08:19:48;22.20;99.90
5899;DHT22;2975;50.956;6.962;2022-08-19T08:22:17;22.20;99.90
5899;DHT22;2975;50.956;6.962;2022-08-19T08:25:06;22.20;99.90
5899;DHT22;2975;50.956;6.962;2022-08-19T08:27:36;21.90;99.90
5899;DHT22;2975;50.956;6.962;2022-08-19T08:30:03;22.00;99.90
5899;DHT22;2975;50.956;6.962;2022-08-19T08:32:31;21.80;99.90
5899;DHT22;2975;50.956;6.962;2022-08-19T08:34:57;22.00;99.90
5899;DHT22;2975;50.956;6.962;2022-08-19T08:37:24;22.40;99.90
5899;DHT22;2975;50.956;6.962;2022-08-19T08:39:49;22.70;99.90
5899;DHT22;2975;50.956;6.962;2022-08-19T08:42:32;23.00;99.90
5899;DHT22;2975;50.956;6.962;2022-08-19T08:45:12;23.30;99.90
5899;DHT22;2975;50.956;6.962;2022-08-19T08:47:44;23.60;99.90
5899;DHT22;2975;50.956;6.962;2022-08-19T08:50:39;23.60;99.90
5899;DHT22;2975;50.956;6.962;2022-08-19T08:53:07;23.70;99.90
5899;DHT22;2975;50.956;6.962;2022-08-19T08:55:34;23.90;99.90
5899;DHT22;2975;50.956;6.962;2022-08-19T08:58:16;24.00;99.90
5899;DHT22;2975;50.956;6.962;2022-08-19T09:00:47;24.50;99.90
5899;DHT22;2975;50.956;6.962;2022-08-19T09:03:25;24.90;99.50
5899;DHT22;2975;50.956;6.962;2022-08-19T09:06:01;24.70;99.90
5899;DHT22;2975;50.956;6.962;2022-08-19T09:11:17;24.80;99.30
5899;DHT22;2975;50.956;6.962;2022-08-19T09:14:31;24.80;99.70
5899;DHT22;2975;50.956;6.962;2022-08-19T09:16:43;25.10;98.00
5899;DHT22;2975;50.956;6.962;2022-08-19T09:19:09;25.20;97.50
5899;DHT22;2975;50.956;6.962;2022-08-19T09:21:36;24.90;97.10
5899;DHT22;2975;50.956;6.962;2022-08-19T09:24:02;24.80;97.50
5899;DHT22;2975;50.956;6.962;2022-08-19T09:26:30;24.70;97.40
5899;DHT22;2975;50.956;6.962;2022-08-19T09:28:58;25.00;96.60
5899;DHT22;2975;50.956;6.962;2022-08-19T09:31:26;24.90;96.20
5899;DHT22;2975;50.956;6.962;2022-08-19T09:33:53;25.20;95.50
5899;DHT22;2975;50.956;6.962;2022-08-19T09:36:23;25.30;95.20
5899;DHT22;2975;50.956;6.962;2022-08-19T09:38:50;24.90;95.80
5899;DHT22;2975;50.956;6.962;2022-08-19T09:41:21;24.50;96.00
5899;DHT22;2975;50.956;6.962;2022-08-19T09:43:51;24.50;96.70
5899;DHT22;2975;50.956;6.962;2022-08-19T09:46:18;24.60;96.50
5899;DHT22;2975;50.956;6.962;2022-08-19T09:48:45;25.20;95.30
5899;DHT22;2975;50.956;6.962;2022-08-19T09:51:13;25.20;94.90
5899;DHT22;2975;50.956;6.962;2022-08-19T09:53:43;25.40;94.20
5899;DHT22;2975;50.956;6.962;2022-08-19T09:56:10;25.40;93.70
5899;DHT22;2975;50.956;6.962;2022-08-19T09:58:36;25.10;93.90
5899;DHT22;2975;50.956;6.962;2022-08-19T10:01:04;25.20;94.00
5899;DHT22;2975;50.956;6.962;2022-08-19T10:03:31;25.40;94.00
5899;DHT22;2975;50.956;6.962;2022-08-19T10:05:59;25.10;93.80
5899;DHT22;2975;50.956;6.962;2022-08-19T10:08:32;25.30;93.50
5899;DHT22;2975;50.956;6.962;2022-08-19T10:10:59;25.10;93.30
5899;DHT22;2975;50.956;6.962;2022-08-19T10:13:27;24.90;93.60
5899;DHT22;2975;50.956;6.962;2022-08-19T10:15:55;24.50;94.40
5899;DHT22;2975;50.956;6.962;2022-08-19T10:18:23;24.50;94.60
5899;DHT22;2975;50.956;6.962;2022-08-19T10:20:51;24.50;94.80
5899;DHT22;2975;50.956;6.962;2022-08-19T10:23:19;24.60;94.90
5899;DHT22;2975;50.956;6.962;2022-08-19T10:25:45;24.70;94.20
5899;DHT22;2975;50.956;6.962;2022-08-19T10:28:10;24.70;94.90
5899;DHT22;2975;50.956;6.962;2022-08-19T10:30:38;24.90;94.70
5899;DHT22;2975;50.956;6.962;2022-08-19T10:33:05;25.00;94.10
5899;DHT22;2975;50.956;6.962;2022-08-19T10:35:31;25.10;93.90
5899;DHT22;2975;50.956;6.962;2022-08-19T10:37:57;25.40;93.90
5899;DHT22;2975;50.956;6.962;2022-08-19T10:40:28;25.50;94.40
5899;DHT22;2975;50.956;6.962;2022-08-19T10:42:54;25.70;93.70
5899;DHT22;2975;50.956;6.962;2022-08-19T10:45:23;25.60;93.30
5899;DHT22;2975;50.956;6.962;2022-08-19T10:47:52;25.50;93.50
5899;DHT22;2975;50.956;6.962;2022-08-19T10:50:18;25.20;93.90
5899;DHT22;2975;50.956;6.962;2022-08-19T10:53:07;25.40;94.00
5899;DHT22;2975;50.956;6.962;2022-08-19T10:55:36;25.60;93.70
5899;DHT22;2975;50.956;6.962;2022-08-19T10:58:21;25.70;93.30
5899;DHT22;2975;50.956;6.962;2022-08-19T11:00:57;26.00;92.60
5899;DHT22;2975;50.956;6.962;2022-08-19T11:03:24;25.90;92.70
5899;DHT22;2975;50.956;6.962;2022-08-19T11:06:00;26.30;92.80
5899;DHT22;2975;50.956;6.962;2022-08-19T11:08:26;26.40;92.60
5899;DHT22;2975;50.956;6.962;2022-08-19T11:10:53;26.40;92.10
5899;DHT22;2975;50.956;6.962;2022-08-19T11:13:22;26.80;91.60
5899;DHT22;2975;50.956;6.962;2022-08-19T11:15:56;27.20;90.90
5899;DHT22;2975;50.956;6.962;2022-08-19T11:18:22;27.10;90.70
5899;DHT22;2975;50.956;6.962;2022-08-19T11:20:48;26.90;90.60
5899;DHT22;2975;50.956;6.962;2022-08-19T11:23:14;26.60;90.90
5899;DHT22;2975;50.956;6.962;2022-08-19T11:25:39;26.50;91.00
5899;DHT22;2975;50.956;6.962;2022-08-19T11:28:05;26.30;91.10
5899;DHT22;2975;50.956;6.962;2022-08-19T11:30:31;26.20;91.10
5899;DHT22;2975;50.956;6.962;2022-08-19T11:32:58;26.20;91.70
5899;DHT22;2975;50.956;6.962;2022-08-19T11:35:26;26.20;91.30
5899;DHT22;2975;50.956;6.962;2022-08-19T11:37:52;26.40;91.20
5899;DHT22;2975;50.956;6.962;2022-08-19T11:40:17;26.70;90.60
5899;DHT22;2975;50.956;6.962;2022-08-19T11:42:43;26.60;90.60
5899;DHT22;2975;50.956;6.962;2022-08-19T11:45:22;26.40;90.50
5899;DHT22;2975;50.956;6.962;2022-08-19T11:47:48;26.20;90.60
5899;DHT22;2975;50.956;6.962;2022-08-19T11:50:15;26.00;90.90
5899;DHT22;2975;50.956;6.962;2022-08-19T11:52:42;25.90;90.50
5899;DHT22;2975;50.956;6.962;2022-08-19T11:55:08;25.70;91.00
5899;DHT22;2975;50.956;6.962;2022-08-19T11:57:34;25.60;91.40
5899;DHT22;2975;50.956;6.962;2022-08-19T11:59:59;25.60;91.10
5899;DHT22;2975;50.956;6.962;2022-08-19T12:02:25;25.50;90.70
5899;DHT22;2975;50.956;6.962;2022-08-19T12:04:51;25.70;90.50
5899;DHT22;2975;50.956;6.962;2022-08-19T12:07:16;25.90;90.60
5899;DHT22;2975;50.956;6.962;2022-08-19T12:09:42;26.20;90.00
5899;DHT22;2975;50.956;6.962;2022-08-19T12:12:08;26.20;89.10
5899;DHT22;2975;50.956;6.962;2022-08-19T12:14:34;26.30;89.10
5899;DHT22;2975;50.956;6.962;2022-08-19T12:17:00;26.50;88.80
5899;DHT22;2975;50.956;6.962;2022-08-19T12:19:27;26.40;88.70
5899;DHT22;2975;50.956;6.962;2022-08-19T12:21:59;26.40;87.60
5899;DHT22;2975;50.956;6.962;2022-08-19T12:24:26;26.50;86.00
5899;DHT22;2975;50.956;6.962;2022-08-19T12:26:52;26.40;86.90
5899;DHT22;2975;50.956;6.962;2022-08-19T12:29:18;26.30;87.70
5899;DHT22;2975;50.956;6.962;2022-08-19T12:31:44;26.50;86.90
5899;DHT22;2975;50.956;6.962;2022-08-19T12:34:10;26.60;86.50
5899;DHT22;2975;50.956;6.962;2022-08-19T12:36:36;26.90;85.30
5899;DHT22;2975;50.956;6.962;2022-08-19T12:39:03;26.90;84.10
5899;DHT22;2975;50.956;6.962;2022-08-19T12:41:29;26.70;84.20
5899;DHT22;2975;50.956;6.962;2022-08-19T12:43:55;26.30;86.50
5899;DHT22;2975;50.956;6.962;2022-08-19T12:46:20;26.20;88.30
5899;DHT22;2975;50.956;6.962;2022-08-19T12:48:46;26.10;89.20
5899;DHT22;2975;50.956;6.962;2022-08-19T12:51:15;26.10;86.90
5899;DHT22;2975;50.956;6.962;2022-08-19T12:53:41;26.20;85.80
5899;DHT22;2975;50.956;6.962;2022-08-19T12:56:08;26.60;84.60
5899;DHT22;2975;50.956;6.962;2022-08-19T12:58:34;26.60;85.10
5899;DHT22;2975;50.956;6.962;2022-08-19T13:01:07;26.60;84.20
5899;DHT22;2975;50.956;6.962;2022-08-19T13:03:33;26.60;85.80
5899;DHT22;2975;50.956;6.962;2022-08-19T13:05:59;26.80;84.80
5899;DHT22;2975;50.956;6.962;2022-08-19T13:08:24;26.70;85.20
5899;DHT22;2975;50.956;6.962;2022-08-19T13:10:50;26.90;84.50
5899;DHT22;2975;50.956;6.962;2022-08-19T13:13:16;26.80;84.50
5899;DHT22;2975;50.956;6.962;2022-08-19T13:15:42;26.80;83.80
5899;DHT22;2975;50.956;6.962;2022-08-19T13:18:11;27.00;83.50
5899;DHT22;2975;50.956;6.962;2022-08-19T13:20:38;27.20;82.20
5899;DHT22;2975;50.956;6.962;2022-08-19T13:23:06;27.20;81.80
5899;DHT22;2975;50.956;6.962;2022-08-19T13:25:32;27.10;82.80
5899;DHT22;2975;50.956;6.962;2022-08-19T13:27:59;27.00;83.40
5899;DHT22;2975;50.956;6.962;2022-08-19T13:30:24;27.00;80.90
5899;DHT22;2975;50.956;6.962;2022-08-19T13:33:09;27.00;79.90
5899;DHT22;2975;50.956;6.962;2022-08-19T13:35:44;26.70;80.00
5899;DHT22;2975;50.956;6.962;2022-08-19T13:38:11;26.80;81.10
5899;DHT22;2975;50.956;6.962;2022-08-19T13:40:38;26.60;79.90
5899;DHT22;2975;50.956;6.962;2022-08-19T13:43:04;26.40;81.50
5899;DHT22;2975;50.956;6.962;2022-08-19T13:45:32;26.30;80.40
5899;DHT22;2975;50.956;6.962;2022-08-19T13:48:00;26.30;77.70
5899;DHT22;2975;50.956;6.962;2022-08-19T13:50:28;26.20;79.00
5899;DHT22;2975;50.956;6.962;2022-08-19T13:52:55;26.20;80.00
5899;DHT22;2975;50.956;6.962;2022-08-19T13:55:22;26.20;80.60
5899;DHT22;2975;50.956;6.962;2022-08-19T13:57:52;26.30;78.80
5899;DHT22;2975;50.956;6.962;2022-08-19T14:00:19;26.30;78.90
5899;DHT22;2975;50.956;6.962;2022-08-19T14:02:47;26.30;78.90
5899;DHT22;2975;50.956;6.962;2022-08-19T14:05:15;26.30;79.60
5899;DHT22;2975;50.956;6.962;2022-08-19T14:07:41;26.50;80.00
5899;DHT22;2975;50.956;6.962;2022-08-19T14:10:09;26.60;79.70
5899;DHT22;2975;50.956;6.962;2022-08-19T14:12:36;26.70;79.20
5899;DHT22;2975;50.956;6.962;2022-08-19T14:15:03;26.70;79.60
5899;DHT22;2975;50.956;6.962;2022-08-19T14:17:29;26.70;78.40
5899;DHT22;2975;50.956;6.962;2022-08-19T14:19:59;26.70;76.60
5899;DHT22;2975;50.956;6.962;2022-08-19T14:22:28;26.90;75.60
5899;DHT22;2975;50.956;6.962;2022-08-19T14:24:56;26.90;76.30
5899;DHT22;2975;50.956;6.962;2022-08-19T14:27:22;26.80;77.00
5899;DHT22;2975;50.956;6.962;2022-08-19T14:29:50;26.70;77.00
5899;DHT22;2975;50.956;6.962;2022-08-19T14:32:16;26.70;78.50
5899;DHT22;2975;50.956;6.962;2022-08-19T14:34:41;26.90;78.30
5899;DHT22;2975;50.956;6.962;2022-08-19T14:37:07;26.70;79.10
5899;DHT22;2975;50.956;6.962;2022-08-19T14:39:34;26.80;79.80
5899;DHT22;2975;50.956;6.962;2022-08-19T14:42:00;26.80;79.10
5899;DHT22;2975;50.956;6.962;2022-08-19T14:44:26;26.80;77.30
5899;DHT22;2975;50.956;6.962;2022-08-19T14:46:52;26.80;77.10
5899;DHT22;2975;50.956;6.962;2022-08-19T14:49:18;26.70;75.60
5899;DHT22;2975;50.956;6.962;2022-08-19T14:51:44;26.60;74.60
5899;DHT22;2975;50.956;6.962;2022-08-19T14:54:12;26.70;74.10
5899;DHT22;2975;50.956;6.962;2022-08-19T14:56:40;26.60;75.30
5899;DHT22;2975;50.956;6.962;2022-08-19T14:59:05;26.50;76.80
5899;DHT22;2975;50.956;6.962;2022-08-19T15:01:31;26.40;76.40
5899;DHT22;2975;50.956;6.962;2022-08-19T15:03:57;26.20;76.20
5899;DHT22;2975;50.956;6.962;2022-08-19T15:06:24;26.20;76.80
5899;DHT22;2975;50.956;6.962;2022-08-19T15:08:50;26.20;74.80
5899;DHT22;2975;50.956;6.962;2022-08-19T15:11:19;26.30;73.90
5899;DHT22;2975;50.956;6.962;2022-08-19T15:13:46;26.30;73.20
5899;DHT22;2975;50.956;6.962;2022-08-19T15:16:12;26.50;73.00
5899;DHT22;2975;50.956;6.962;2022-08-19T15:18:40;26.50;72.90
5899;DHT22;2975;50.956;6.962;2022-08-19T15:21:10;26.50;72.70
5899;DHT22;2975;50.956;6.962;2022-08-19T15:23:38;26.60;71.90
5899;DHT22;2975;50.956;6.962;2022-08-19T15:26:04;26.70;71.40
5899;DHT22;2975;50.956;6.962;2022-08-19T15:28:30;26.70;71.50
5899;DHT22;2975;50.956;6.962;2022-08-19T15:30:57;26.80;71.00
5899;DHT22;2975;50.956;6.962;2022-08-19T15:33:23;26.80;71.40
5899;DHT22;2975;50.956;6.962;2022-08-19T15:35:49;26.80;71.50
5899;DHT22;2975;50.956;6.962;2022-08-19T15:38:16;26.80;72.60
5899;DHT22;2975;50.956;6.962;2022-08-19T15:40:48;26.90;72.10
5899;DHT22;2975;50.956;6.962;2022-08-19T15:43:15;27.20;71.00
5899;DHT22;2975;50.956;6.962;2022-08-19T15:45:43;27.10;70.90
5899;DHT22;2975;50.956;6.962;2022-08-19T15:48:09;27.10;71.20
5899;DHT22;2975;50.956;6.962;2022-08-19T15:50:35;27.30;70.90
5899;DHT22;2975;50.956;6.962;2022-08-19T15:53:05;27.20;71.80
5899;DHT22;2975;50.956;6.962;2022-08-19T15:55:33;27.10;72.60
5899;DHT22;2975;50.956;6.962;2022-08-19T15:58:11;26.90;73.80
5899;DHT22;2975;50.956;6.962;2022-08-19T16:00:57;26.60;75.10
5899;DHT22;2975;50.956;6.962;2022-08-19T16:03:42;26.50;75.70
5899;DHT22;2975;50.956;6.962;2022-08-19T16:06:28;26.50;76.00
5899;DHT22;2975;50.956;6.962;2022-08-19T16:08:55;26.50;76.90
5899;DHT22;2975;50.956;6.962;2022-08-19T16:11:23;26.40;77.90
5899;DHT22;2975;50.956;6.962;2022-08-19T16:13:50;26.30;78.60